createdAt,value
2023-02-13T00:00:21.964Z,100733.00
2023-02-13T00:02:50.712Z,100680.00
2023-02-13T00:05:20.229Z,100743.00
2023-02-13T00:07:48.843Z,100721.00
2023-02-13T00:10:17.804Z,100735.00
2023-02-13T00:12:46.387Z,100710.00
2023-02-13T00:15:16.627Z,100712.00
2023-02-13T00:17:45.251Z,100717.00
2023-02-13T00:20:14.794Z,100727.00
2023-02-13T00:22:43.486Z,100709.00
2023-02-13T00:25:12.610Z,100709.00
2023-02-13T00:27:41.438Z,100714.00
2023-02-13T00:30:11.322Z,100727.00
2023-02-13T00:32:41.280Z,100703.00
2023-02-13T00:35:10.233Z,100713.00
2023-02-13T00:37:39.006Z,100701.00
2023-02-13T00:40:09.504Z,100698.00
2023-02-13T00:42:38.059Z,100704.00
2023-02-13T00:45:08.666Z,100700.00
2023-02-13T00:47:37.278Z,100694.00
2023-02-13T00:50:08.644Z,100692.00
2023-02-13T00:52:38.455Z,100711.00
2023-02-13T00:55:07.968Z,100702.00
2023-02-13T00:57:38.433Z,100698.00
2023-02-13T01:00:09.297Z,100699.00
2023-02-13T01:02:37.947Z,100697.00
2023-02-13T01:05:09.036Z,100690.00
2023-02-13T01:07:37.636Z,100669.00
2023-02-13T01:10:09.155Z,100698.00
2023-02-13T01:12:39.828Z,100686.00
2023-02-13T01:15:09.800Z,100685.00
2023-02-13T01:17:39.765Z,100684.00
2023-02-13T01:20:13.430Z,100677.00
2023-02-13T01:22:44.414Z,100669.00
2023-02-13T01:25:13.189Z,100687.00
2023-02-13T01:27:41.802Z,100690.00
2023-02-13T01:30:18.710Z,100672.00
2023-02-13T01:32:53.427Z,100681.00
2023-02-13T01:35:23.729Z,100687.00
2023-02-13T01:37:52.322Z,100688.00
2023-02-13T01:40:21.195Z,100673.00
2023-02-13T01:42:49.835Z,100677.00
2023-02-13T01:45:27.013Z,100662.00
2023-02-13T01:47:59.366Z,100674.00
2023-02-13T01:50:37.667Z,100672.00
2023-02-13T01:53:12.736Z,100659.00
2023-02-13T01:55:50.254Z,100672.00
2023-02-13T01:58:25.812Z,100674.00
2023-02-13T02:00:55.919Z,100660.00
2023-02-13T02:03:33.241Z,100653.00
2023-02-13T02:06:15.872Z,100649.00
2023-02-13T02:08:45.125Z,100657.00
2023-02-13T02:11:29.957Z,100672.00
2023-02-13T02:14:00.174Z,100667.00
2023-02-13T02:16:54.967Z,100666.00
2023-02-13T02:19:39.760Z,100656.00
2023-02-13T02:22:59.456Z,100659.00
2023-02-13T02:26:33.920Z,100652.00
2023-02-13T02:30:07.940Z,100655.00
2023-02-13T02:33:05.049Z,100646.00
2023-02-13T02:35:47.674Z,100660.00
2023-02-13T02:38:41.169Z,100650.00
2023-02-13T02:41:38.340Z,100649.00
2023-02-13T02:44:28.837Z,100635.00
2023-02-13T02:47:28.942Z,100624.00
2023-02-13T02:50:17.957Z,100648.00
2023-02-13T02:53:05.891Z,100655.00
2023-02-13T02:55:49.649Z,100650.00
2023-02-13T02:58:41.384Z,100646.00
2023-02-13T03:01:35.261Z,100655.00
2023-02-13T03:04:23.944Z,100645.00
2023-02-13T03:07:00.788Z,100649.00
2023-02-13T03:09:54.260Z,100643.00
2023-02-13T03:12:45.788Z,100656.00
2023-02-13T03:15:15.060Z,100656.00
2023-02-13T03:18:02.688Z,100662.00
2023-02-13T03:21:04.053Z,100655.00
2023-02-13T03:23:51.007Z,100637.00
2023-02-13T03:26:50.461Z,100624.00
2023-02-13T03:30:02.770Z,100624.00
2023-02-13T03:32:46.938Z,100615.00
2023-02-13T03:35:51.357Z,100623.00
2023-02-13T03:38:29.001Z,100610.00
2023-02-13T03:41:21.320Z,100629.00
2023-02-13T03:44:04.489Z,100613.00
2023-02-13T03:46:39.022Z,100605.00
2023-02-13T03:49:32.103Z,100602.00
2023-02-13T03:52:07.610Z,100597.00
2023-02-13T03:55:03.267Z,100599.00
2023-02-13T03:57:55.658Z,100580.00
2023-02-13T04:00:27.574Z,100597.00
2023-02-13T04:03:08.334Z,100600.00
2023-02-13T04:05:44.888Z,100605.00
2023-02-13T04:08:13.795Z,100609.00
2023-02-13T04:10:52.519Z,100602.00
2023-02-13T04:13:35.302Z,100599.00
2023-02-13T04:16:13.229Z,100611.00
2023-02-13T04:18:42.589Z,100616.00
2023-02-13T04:21:12.241Z,100600.00
2023-02-13T04:23:40.877Z,100577.00
2023-02-13T04:26:17.754Z,100574.00
2023-02-13T04:28:48.998Z,100569.00
2023-02-13T04:31:17.904Z,100575.00
2023-02-13T04:33:46.660Z,100559.00
2023-02-13T04:36:15.318Z,100564.00
2023-02-13T04:38:45.440Z,100572.00
2023-02-13T04:41:14.254Z,100579.00
2023-02-13T04:43:43.636Z,100570.00
2023-02-13T04:46:13.681Z,100569.00
2023-02-13T04:48:42.411Z,100578.00
2023-02-13T04:51:11.082Z,100569.00
2023-02-13T04:53:39.829Z,100571.00
2023-02-13T04:56:08.725Z,100579.00
2023-02-13T04:58:37.443Z,100580.00
2023-02-13T05:01:14.465Z,100570.00
2023-02-13T05:03:43.350Z,100597.00
2023-02-13T05:06:12.290Z,100597.00
2023-02-13T05:08:41.386Z,100571.00
2023-02-13T05:11:10.058Z,100579.00
2023-02-13T05:13:38.741Z,100601.00
2023-02-13T05:16:08.254Z,100563.00
2023-02-13T05:18:38.280Z,100595.00
2023-02-13T05:21:36.176Z,100587.00
2023-02-13T05:24:05.323Z,100568.00
2023-02-13T05:26:34.283Z,100568.00
2023-02-13T05:29:22.674Z,100572.00
2023-02-13T05:31:54.099Z,100575.00
2023-02-13T05:34:26.620Z,100565.00
2023-02-13T05:36:56.003Z,100571.00
2023-02-13T05:39:24.721Z,100558.00
2023-02-13T05:41:53.390Z,100555.00
2023-02-13T05:44:22.044Z,100550.00
2023-02-13T05:46:50.760Z,100536.00
2023-02-13T05:49:19.608Z,100540.00
2023-02-13T05:51:49.770Z,100542.00
2023-02-13T05:54:18.602Z,100537.00
2023-02-13T05:56:47.676Z,100532.00
2023-02-13T05:59:16.404Z,100544.00
2023-02-13T06:01:45.075Z,100542.00
2023-02-13T06:04:13.764Z,100556.00
2023-02-13T06:06:42.446Z,100563.00
2023-02-13T06:09:12.922Z,100568.00
2023-02-13T06:11:41.594Z,100544.00
2023-02-13T06:14:10.441Z,100544.00
2023-02-13T06:16:39.068Z,100544.00
2023-02-13T06:19:09.084Z,100545.00
2023-02-13T06:21:39.035Z,100530.00
2023-02-13T06:24:09.444Z,100529.00
2023-02-13T06:26:39.461Z,100541.00
2023-02-13T06:29:09.359Z,100538.00
2023-02-13T06:31:38.018Z,100519.00
2023-02-13T06:34:06.837Z,100532.00
2023-02-13T06:36:37.631Z,100531.00
2023-02-13T06:39:07.463Z,100530.00
2023-02-13T06:41:36.104Z,100529.00
2023-02-13T06:44:07.234Z,100529.00
2023-02-13T06:46:36.173Z,100502.00
2023-02-13T06:49:04.816Z,100508.00
2023-02-13T06:51:33.495Z,100503.00
2023-02-13T06:54:02.705Z,100503.00
2023-02-13T06:56:31.414Z,100497.00
2023-02-13T06:59:00.052Z,100494.00
2023-02-13T07:01:30.099Z,100488.00
2023-02-13T07:03:58.677Z,100477.00
2023-02-13T07:06:27.557Z,100489.00
2023-02-13T07:08:56.381Z,100483.00
2023-02-13T07:11:26.766Z,100469.00
2023-02-13T07:13:55.389Z,100478.00
2023-02-13T07:16:24.279Z,100478.00
2023-02-13T07:18:54.312Z,100470.00
2023-02-13T07:21:22.894Z,100467.00
2023-02-13T07:23:52.442Z,100475.00
2023-02-13T07:26:21.313Z,100476.00
2023-02-13T07:28:54.796Z,100471.00
2023-02-13T07:31:28.165Z,100487.00
2023-02-13T07:33:58.145Z,100469.00
2023-02-13T07:36:26.763Z,100465.00
2023-02-13T07:38:55.431Z,100446.00
2023-02-13T07:41:26.772Z,100448.00
2023-02-13T07:43:55.754Z,100444.00
2023-02-13T07:46:24.545Z,100432.00
2023-02-13T07:48:53.889Z,100438.00
2023-02-13T07:51:26.447Z,100432.00
2023-02-13T07:53:56.549Z,100423.00
2023-02-13T07:56:25.323Z,100428.00
2023-02-13T07:58:53.932Z,100412.00
2023-02-13T08:01:23.147Z,100396.00
2023-02-13T08:03:52.588Z,100405.00
2023-02-13T08:06:25.392Z,100393.00
2023-02-13T08:09:16.510Z,100399.00
2023-02-13T08:11:56.822Z,100388.00
2023-02-13T08:14:28.236Z,100367.00
2023-02-13T08:17:00.734Z,100398.00
2023-02-13T08:19:30.431Z,100392.00
2023-02-13T08:22:01.592Z,100393.00
2023-02-13T08:24:30.331Z,100380.00
2023-02-13T08:26:59.020Z,100383.00
2023-02-13T08:29:27.933Z,100384.00
2023-02-13T08:31:56.615Z,100367.00
2023-02-13T08:34:26.652Z,100373.00
2023-02-13T08:36:55.275Z,100382.00
2023-02-13T08:39:25.309Z,100389.00
2023-02-13T08:41:54.035Z,100383.00
2023-02-13T08:44:22.725Z,100389.00
2023-02-13T08:46:54.820Z,100387.00
2023-02-13T08:49:34.335Z,100385.00
2023-02-13T08:52:06.217Z,100389.00
2023-02-13T08:54:40.596Z,100373.00
2023-02-13T08:57:09.772Z,100373.00
2023-02-13T08:59:40.404Z,100379.00
2023-02-13T09:02:14.842Z,100357.00
2023-02-13T09:04:44.045Z,100344.00
2023-02-13T09:07:12.693Z,100350.00
2023-02-13T09:09:43.855Z,100331.00
2023-02-13T09:12:13.825Z,100335.00
2023-02-13T09:14:46.451Z,100319.00
2023-02-13T09:17:19.742Z,100346.00
2023-02-13T09:19:51.976Z,100340.00
2023-02-13T09:22:20.571Z,100333.00
2023-02-13T09:24:52.714Z,100322.00
2023-02-13T09:27:23.448Z,100342.00
2023-02-13T09:29:52.148Z,100320.00
2023-02-13T09:32:20.773Z,100335.00
2023-02-13T09:34:50.688Z,100319.00
2023-02-13T09:37:19.785Z,100318.00
2023-02-13T09:39:50.780Z,100306.00
2023-02-13T09:42:28.514Z,100321.00
2023-02-13T09:45:03.913Z,100302.00
2023-02-13T09:47:38.256Z,100303.00
2023-02-13T09:50:17.550Z,100309.00
2023-02-13T09:52:48.194Z,100315.00
2023-02-13T09:55:22.995Z,100304.00
2023-02-13T09:58:05.739Z,100308.00
2023-02-13T10:00:42.826Z,100294.00
2023-02-13T10:03:29.924Z,100284.00
2023-02-13T10:06:09.469Z,100292.00
2023-02-13T10:09:01.960Z,100278.00
2023-02-13T10:12:16.451Z,100268.00
2023-02-13T10:14:58.436Z,100267.00
2023-02-13T10:17:35.852Z,100269.00
2023-02-13T10:20:14.195Z,100272.00
2023-02-13T10:22:49.410Z,100263.00
2023-02-13T10:25:25.700Z,100265.00
2023-02-13T10:28:06.034Z,100266.00
2023-02-13T10:30:40.875Z,100239.00
2023-02-13T10:33:20.982Z,100211.00
2023-02-13T10:36:07.299Z,100213.00
2023-02-13T10:38:44.677Z,100266.00
2023-02-13T10:41:30.893Z,100235.00
2023-02-13T10:44:23.682Z,100249.00
2023-02-13T10:47:07.056Z,100285.00
2023-02-13T10:49:55.792Z,100255.00
2023-02-13T10:52:41.678Z,100225.00
2023-02-13T10:56:00.715Z,100254.00
2023-02-13T10:58:48.493Z,100258.00
2023-02-13T11:01:25.668Z,100247.00
2023-02-13T11:04:07.856Z,100220.00
2023-02-13T11:06:39.607Z,100235.00
2023-02-13T11:09:08.905Z,100227.00
2023-02-13T11:11:39.951Z,100221.00
2023-02-13T11:14:16.777Z,100207.00
2023-02-13T11:16:59.603Z,100238.00
2023-02-13T11:19:37.185Z,100241.00
2023-02-13T11:22:10.158Z,100220.00
2023-02-13T11:24:45.191Z,100228.00
2023-02-13T11:27:15.614Z,100211.00
2023-02-13T11:29:56.114Z,100218.00
2023-02-13T11:32:29.181Z,100236.00
2023-02-13T11:35:00.820Z,100224.00
2023-02-13T11:37:31.759Z,100227.00
2023-02-13T11:40:21.970Z,100234.00
2023-02-13T11:42:53.231Z,100231.00
2023-02-13T11:45:26.847Z,100202.00
2023-02-13T11:47:58.070Z,100232.00
2023-02-13T11:50:30.704Z,100210.00
2023-02-13T11:53:03.650Z,100227.00
2023-02-13T11:55:35.480Z,100229.00
2023-02-13T11:58:22.703Z,100225.00
2023-02-13T12:00:59.980Z,100232.00
2023-02-13T12:03:33.553Z,100203.00
2023-02-13T12:06:07.246Z,100222.00
2023-02-13T12:08:38.508Z,100243.00
2023-02-13T12:11:24.578Z,100212.00
2023-02-13T12:13:54.149Z,100210.00
2023-02-13T12:16:35.336Z,100218.00
2023-02-13T12:19:13.033Z,100224.00
2023-02-13T12:22:04.720Z,100205.00
2023-02-13T12:24:57.546Z,100230.00
2023-02-13T12:27:43.112Z,100236.00
2023-02-13T12:30:45.241Z,100246.00
2023-02-13T12:33:33.823Z,100231.00
2023-02-13T12:36:15.731Z,100191.00
2023-02-13T12:39:02.945Z,100216.00
2023-02-13T12:41:43.798Z,100226.00
2023-02-13T12:44:50.167Z,100245.00
2023-02-13T12:47:23.151Z,100229.00
2023-02-13T12:50:25.173Z,100234.00
2023-02-13T12:53:23.938Z,100238.00
2023-02-13T12:56:19.667Z,100223.00
2023-02-13T12:59:02.510Z,100212.00
2023-02-13T13:02:24.358Z,100221.00
2023-02-13T13:05:13.591Z,100234.00
2023-02-13T13:08:14.039Z,100240.00
2023-02-13T13:11:05.166Z,100243.00
2023-02-13T13:13:52.996Z,100235.00
2023-02-13T13:16:30.536Z,100226.00
2023-02-13T13:19:12.609Z,100237.00
2023-02-13T13:21:50.076Z,100248.00
2023-02-13T13:24:43.491Z,100247.00
2023-02-13T13:27:23.270Z,100244.00
2023-02-13T13:29:59.940Z,100222.00
2023-02-13T13:32:30.988Z,100228.00
2023-02-13T13:35:00.324Z,100226.00
2023-02-13T13:37:38.850Z,100228.00
2023-02-13T13:40:39.363Z,100219.00
2023-02-13T13:43:21.967Z,100221.00
2023-02-13T13:46:07.005Z,100225.00
2023-02-13T13:48:56.765Z,100207.00
2023-02-13T13:51:26.177Z,100224.00
2023-02-13T13:54:25.991Z,100224.00
2023-02-13T13:57:12.988Z,100243.00
2023-02-13T14:00:21.633Z,100239.00
2023-02-13T14:02:52.961Z,100231.00
2023-02-13T14:05:31.561Z,100233.00
2023-02-13T14:08:04.776Z,100235.00
2023-02-13T14:11:26.368Z,100221.00
2023-02-13T14:13:56.590Z,100221.00
2023-02-13T14:16:44.086Z,100241.00
2023-02-13T14:19:30.895Z,100236.00
2023-02-13T14:22:45.555Z,100228.00
2023-02-13T14:25:25.898Z,100226.00
2023-02-13T14:28:00.621Z,100211.00
2023-02-13T14:30:35.807Z,100220.00
2023-02-13T14:33:09.421Z,100208.00
2023-02-13T14:35:39.972Z,100213.00
2023-02-13T14:38:25.010Z,100217.00
2023-02-13T14:40:54.480Z,100221.00
2023-02-13T14:43:34.571Z,100239.00
2023-02-13T14:46:18.398Z,100241.00
2023-02-13T14:48:54.601Z,100237.00
2023-02-13T14:51:31.757Z,100254.00
2023-02-13T14:54:10.995Z,100226.00
2023-02-13T14:56:40.829Z,100257.00
2023-02-13T14:59:17.860Z,100274.00
2023-02-13T15:01:54.822Z,100267.00
2023-02-13T15:04:32.386Z,100270.00
2023-02-13T15:07:05.102Z,100282.00
2023-02-13T15:09:40.042Z,100281.00
2023-02-13T15:12:32.117Z,100273.00
2023-02-13T15:15:02.593Z,100267.00
2023-02-13T15:17:40.250Z,100280.00
2023-02-13T15:20:24.348Z,100262.00
2023-02-13T15:22:53.923Z,100274.00
2023-02-13T15:25:27.082Z,100288.00
2023-02-13T15:27:56.728Z,100282.00
2023-02-13T15:30:28.453Z,100282.00
2023-02-13T15:33:00.901Z,100290.00
2023-02-13T15:35:32.929Z,100292.00
2023-02-13T15:38:18.190Z,100281.00
2023-02-13T15:40:46.927Z,100284.00
2023-02-13T15:43:27.017Z,100288.00
2023-02-13T15:46:01.510Z,100301.00
2023-02-13T15:48:33.559Z,100297.00
2023-02-13T15:51:03.663Z,100296.00
2023-02-13T15:53:32.385Z,100301.00
2023-02-13T15:56:05.184Z,100310.00
2023-02-13T15:58:36.558Z,100316.00
2023-02-13T16:01:12.406Z,100309.00
2023-02-13T16:03:44.987Z,100311.00
2023-02-13T16:06:18.295Z,100307.00
2023-02-13T16:08:53.622Z,100311.00
2023-02-13T16:11:32.715Z,100299.00
2023-02-13T16:14:19.295Z,100300.00
2023-02-13T16:16:54.600Z,100312.00
2023-02-13T16:19:58.210Z,100305.00
2023-02-13T16:25:36.229Z,100315.00
2023-02-13T16:28:36.161Z,100332.00
2023-02-13T16:31:08.742Z,100315.00
2023-02-13T16:33:50.870Z,100313.00
2023-02-13T16:36:30.973Z,100324.00
2023-02-13T16:39:28.089Z,100331.00
2023-02-13T16:41:59.028Z,100325.00
2023-02-13T16:44:31.415Z,100331.00
2023-02-13T16:47:02.879Z,100344.00
2023-02-13T16:49:34.912Z,100340.00
2023-02-13T16:52:16.803Z,100331.00
2023-02-13T16:54:54.431Z,100326.00
2023-02-13T16:57:31.409Z,100334.00
2023-02-13T17:00:08.625Z,100341.00
2023-02-13T17:02:40.062Z,100345.00
2023-02-13T17:05:24.986Z,100362.00
2023-02-13T17:07:58.822Z,100335.00
2023-02-13T17:10:31.399Z,100354.00
2023-02-13T17:13:02.778Z,100368.00
2023-02-13T17:15:33.791Z,100337.00
2023-02-13T17:18:02.453Z,100342.00
2023-02-13T17:20:34.495Z,100348.00
2023-02-13T17:23:09.734Z,100345.00
2023-02-13T17:25:40.102Z,100368.00
2023-02-13T17:28:15.499Z,100370.00
2023-02-13T17:30:45.167Z,100359.00
2023-02-13T17:33:18.185Z,100377.00
2023-02-13T17:35:47.719Z,100354.00
2023-02-13T17:38:17.925Z,100358.00
2023-02-13T17:40:50.547Z,100355.00
2023-02-13T17:43:21.971Z,100373.00
2023-02-13T17:45:52.514Z,100363.00
2023-02-13T17:48:24.097Z,100380.00
2023-02-13T17:50:54.089Z,100361.00
2023-02-13T17:53:27.130Z,100385.00
2023-02-13T17:55:56.168Z,100382.00
2023-02-13T17:58:24.933Z,100373.00
2023-02-13T18:00:53.862Z,100388.00
2023-02-13T18:03:22.937Z,100385.00
2023-02-13T18:05:51.893Z,100377.00
2023-02-13T18:08:20.569Z,100379.00
2023-02-13T18:10:50.917Z,100386.00
2023-02-13T18:13:19.559Z,100381.00
2023-02-13T18:15:48.757Z,100383.00
2023-02-13T18:18:17.935Z,100390.00
2023-02-13T18:20:46.850Z,100402.00
2023-02-13T18:23:15.511Z,100388.00
2023-02-13T18:25:44.142Z,100416.00
2023-02-13T18:28:14.176Z,100411.00
2023-02-13T18:30:44.357Z,100426.00
2023-02-13T18:33:13.187Z,100417.00
2023-02-13T18:35:42.291Z,100410.00
2023-02-13T18:38:10.961Z,100424.00
2023-02-13T18:40:39.688Z,100422.00
2023-02-13T18:43:08.435Z,100429.00
2023-02-13T18:45:39.056Z,100440.00
2023-02-13T18:48:09.418Z,100423.00
2023-02-13T18:50:41.153Z,100431.00
2023-02-13T18:53:10.580Z,100427.00
2023-02-13T18:55:39.469Z,100431.00
2023-02-13T18:58:08.495Z,100431.00
2023-02-13T19:00:38.777Z,100433.00
2023-02-13T19:03:07.410Z,100438.00
2023-02-13T19:05:36.029Z,100436.00
2023-02-13T19:08:05.939Z,100439.00
2023-02-13T19:10:34.856Z,100457.00
2023-02-13T19:13:03.411Z,100454.00
2023-02-13T19:15:32.152Z,100448.00
2023-02-13T19:18:02.492Z,100464.00
2023-02-13T19:20:31.213Z,100468.00
2023-02-13T19:22:59.869Z,100483.00
2023-02-13T19:25:28.536Z,100467.00
2023-02-13T19:27:57.114Z,100470.00
2023-02-13T19:30:25.769Z,100489.00
2023-02-13T19:32:55.585Z,100473.00
2023-02-13T19:35:25.648Z,100489.00
2023-02-13T19:37:54.447Z,100493.00
2023-02-13T19:40:23.049Z,100492.00
2023-02-13T19:42:51.689Z,100507.00
2023-02-13T19:45:20.352Z,100501.00
2023-02-13T19:47:49.154Z,100500.00
2023-02-13T19:50:18.117Z,100508.00
2023-02-13T19:53:02.955Z,100504.00
2023-02-13T19:55:32.006Z,100509.00
2023-02-13T19:58:01.135Z,100501.00
2023-02-13T20:00:29.764Z,100505.00
2023-02-13T20:03:06.670Z,100505.00
2023-02-13T20:05:45.119Z,100509.00
2023-02-13T20:08:24.849Z,100519.00
2023-02-13T20:10:53.487Z,100514.00
2023-02-13T20:13:22.076Z,100525.00
2023-02-13T20:15:50.796Z,100522.00
2023-02-13T20:18:19.729Z,100505.00
2023-02-13T20:20:48.818Z,100515.00
2023-02-13T20:23:18.990Z,100524.00
2023-02-13T20:25:47.647Z,100519.00
2023-02-13T20:28:16.315Z,100521.00
2023-02-13T20:30:46.080Z,100507.00
2023-02-13T20:33:15.146Z,100528.00
2023-02-13T20:35:43.721Z,100536.00
2023-02-13T20:38:14.355Z,100544.00
2023-02-13T20:40:47.522Z,100532.00
2023-02-13T20:43:16.083Z,100532.00
2023-02-13T20:45:44.691Z,100554.00
2023-02-13T20:48:13.306Z,100540.00
2023-02-13T20:50:41.902Z,100556.00
2023-02-13T20:53:10.888Z,100542.00
2023-02-13T20:55:39.561Z,100562.00
2023-02-13T20:58:10.061Z,100539.00
2023-02-13T21:00:38.723Z,100555.00
2023-02-13T21:03:07.558Z,100561.00
2023-02-13T21:05:36.398Z,100555.00
2023-02-13T21:08:05.131Z,100564.00
2023-02-13T21:10:33.746Z,100570.00
2023-02-13T21:13:02.320Z,100591.00
2023-02-13T21:15:33.003Z,100568.00
2023-02-13T21:18:03.593Z,100592.00
2023-02-13T21:20:33.362Z,100603.00
2023-02-13T21:23:03.016Z,100594.00
2023-02-13T21:25:31.676Z,100611.00
2023-02-13T21:28:00.385Z,100598.00
2023-02-13T21:30:34.233Z,100597.00
2023-02-13T21:33:02.875Z,100609.00
2023-02-13T21:35:31.584Z,100606.00
2023-02-13T21:38:00.256Z,100623.00
2023-02-13T21:40:29.008Z,100615.00
2023-02-13T21:42:57.630Z,100638.00
2023-02-13T21:45:26.247Z,100632.00
2023-02-13T21:47:57.692Z,100625.00
2023-02-13T21:50:26.319Z,100619.00
2023-02-13T21:52:54.976Z,100628.00
2023-02-13T21:55:23.624Z,100631.00
2023-02-13T21:57:52.166Z,100647.00
2023-02-13T22:00:21.267Z,100627.00
2023-02-13T22:02:49.910Z,100639.00
2023-02-13T22:05:20.093Z,100625.00
2023-02-13T22:08:06.184Z,100625.00
2023-02-13T22:10:34.865Z,100607.00
2023-02-13T22:13:03.485Z,100636.00
2023-02-13T22:15:32.136Z,100646.00
2023-02-13T22:18:00.922Z,100657.00
2023-02-13T22:20:31.078Z,100653.00
2023-02-13T22:22:59.678Z,100665.00
2023-02-13T22:25:28.243Z,100677.00
2023-02-13T22:27:56.960Z,100678.00
2023-02-13T22:30:25.678Z,100664.00
2023-02-13T22:32:54.463Z,100665.00
2023-02-13T22:35:23.129Z,100695.00
2023-02-13T22:37:53.081Z,100682.00
2023-02-13T22:40:21.763Z,100680.00
2023-02-13T22:42:52.527Z,100682.00
2023-02-13T22:45:21.099Z,100680.00
2023-02-13T22:47:49.675Z,100715.00
2023-02-13T22:50:18.671Z,100692.00
2023-02-13T22:52:47.254Z,100693.00
2023-02-13T22:55:17.550Z,100697.00
2023-02-13T22:57:47.035Z,100717.00
2023-02-13T23:00:16.917Z,100735.00
2023-02-13T23:02:45.583Z,100727.00
2023-02-13T23:05:14.212Z,100687.00
2023-02-13T23:07:42.889Z,100721.00
2023-02-13T23:10:12.824Z,100735.00
2023-02-13T23:12:45.684Z,100718.00
2023-02-13T23:15:16.048Z,100714.00
2023-02-13T23:18:01.994Z,100742.00
2023-02-13T23:20:30.742Z,100719.00
2023-02-13T23:22:59.446Z,100724.00
2023-02-13T23:25:28.357Z,100740.00
2023-02-13T23:27:58.356Z,100736.00
2023-02-13T23:30:28.633Z,100739.00
2023-02-13T23:32:57.929Z,100752.00
2023-02-13T23:35:27.812Z,100764.00
2023-02-13T23:37:56.470Z,100770.00
2023-02-13T23:40:25.072Z,100743.00
2023-02-13T23:42:53.626Z,100757.00
2023-02-13T23:45:23.719Z,100772.00
2023-02-13T23:47:52.340Z,100747.00
2023-02-13T23:50:21.176Z,100776.00
2023-02-13T23:52:49.828Z,100797.00
2023-02-13T23:55:19.262Z,100801.00
2023-02-13T23:57:51.996Z,100791.00
